• Join FlightAware (Why Join?)
  • Login
  • US Flag 
02:43PM EST


 

Airport Tracker/Info


-or-


 

Live Flight TrackerFlight Track Log ✈ VNR160 ✈ 26-Apr-2013 ✈ KHPN - KPDK

Flight Track Log - Related Links

Times and Time Zones

All times are in EDT time to prevent confusion due to time zone crossing. See the VNR160 flight status page for this flight to view local times or setup timezone preferences in your user account.

Time Position Orientation Groundspeed Altitude Reporting Facility
EDT Latitude Longitude Course Direction KTS MPH feet Rate Location/Type
07:00AM 41.0833 -73.7167 270° West 140 161 1,500  Level New York TRACON
07:01AM 41.0833 -73.7667 270° West 160 184 3,400 2,220 Climbing New York TRACON
07:02AM 41.0500 -73.8333 236° Southwest 161 185 5,800 1,620 Climbing New York TRACON
07:03AM 41.0333 -73.8833 246° West 200 230 6,700 1,380 Climbing New York TRACON
07:04AM 41.0000 -73.9667 242° Southwest 215 247 8,600 2,100 Climbing New York TRACON
07:05AM 40.9833 -74.0167 246° West 195 224 10,800 1,680 Climbing New York TRACON
07:06AM 40.9500 -74.0833 237° Southwest 210 242 11,900 600 Climbing New York TRACON
07:07AM 40.9500 -74.1667 270° West 255 293 12,000  Climbing New York TRACON
07:08AM 40.9333 -74.2667 258° West 269 310 12,000  Level New York TRACON
07:09AM 40.9167 -74.3667 258° West 271 312 12,000  Level New York TRACON
07:10AM 40.9019 -74.3894 229° Southwest 277 319 12,000  Level New York Center
07:11AM 40.8575 -74.4778 236° Southwest 272 313 12,000  Level New York Center
07:12AM 40.8178 -74.5522 235° Southwest 267 307 12,000  Level New York Center
07:13AM 40.7711 -74.6400 235° Southwest 267 307 12,000  Level New York Center
07:14AM 40.7333 -74.7092 234° Southwest 272 313 12,000 300 Level New York Center
07:15AM 40.6844 -74.7994 234° Southwest 277 319 12,600 1,140 Climbing New York Center
07:16AM 40.6422 -74.8789 235° Southwest 271 312 14,300 1,320 Climbing New York Center
07:17AM 40.6000 -74.9528 233° Southwest 271 312 15,200 900 Climbing New York Center
07:18AM 40.5600 -75.0269 235° Southwest 271 312 16,200 1,380 Climbing New York Center
07:19AM 40.5089 -75.1111 231° Southwest 271 312 18,000 1,320 Climbing New York Center
07:20AM 40.4669 -75.1739 229° Southwest 271 312 18,900 1,380 Climbing New York Center
07:21AM 40.4225 -75.2475 232° Southwest 265 305 20,800 1,800 Climbing New York Center
07:22AM 40.3781 -75.3181 230° Southwest 265 305 22,500 1,320 Climbing New York Center
07:23AM 40.3294 -75.3939 230° Southwest 265 305 23,600 1,020 Climbing New York Center
07:24AM 40.2781 -75.4747 230° Southwest 283 326 24,600 1,080 Climbing New York Center
07:25AM 40.2292 -75.5558 232° Southwest 290 334 25,800 1,200 Climbing New York Center
07:26AM 40.1836 -75.6450 236° Southwest 290 334 27,000 1,140 Climbing New York Center
07:27AM 40.1361 -75.7342 235° Southwest 296 341 28,200 1,140 Climbing New York Center
07:28AM 40.0928 -75.8233 238° Southwest 296 341 29,400 1,140 Climbing New York Center
07:29AM 40.0494 -75.9122 238° Southwest 296 341 30,600 1,020 Climbing New York Center
07:30AM 40.0017 -76.0008 235° Southwest 296 341 31,500 660 Climbing New York Center
07:31AM 39.9536 -76.0950 236° Southwest 302 348 32,000 240 Climbing New York Center
07:32AM 39.9056 -76.1914 237° Southwest 308 354 32,000  Level New York Center
07:33AM 39.8489 -76.2897 233° Southwest 326 375 32,000  Level New York Center
07:35AM 39.7603 -76.4769 238° Southwest 339 390 32,000  Level Washington Center
07:36AM 39.6950 -76.5867 232° Southwest 350 403 32,000  Level Washington Center
07:37AM 39.6461 -76.6883 238° Southwest 350 403 32,000  Level Washington Center
07:38AM 39.5911 -76.7897 235° Southwest 350 403 32,000  Level Washington Center
07:39AM 39.5378 -76.8911 236° Southwest 350 403 32,000  Level Washington Center
07:40AM 39.4825 -76.9897 234° Southwest 350 403 32,000  Level Washington Center
07:41AM 39.4044 -77.0742 220° Southwest 356 410 32,000  Level Washington Center
07:42AM 39.3264 -77.1558 219° Southwest 362 417 32,000  Level Washington Center
07:43AM 39.2481 -77.2372 219° Southwest 362 417 32,000  Level Washington Center
07:44AM 39.1742 -77.3158 220° Southwest 362 417 32,000  Level Washington Center
07:45AM 39.0936 -77.3969 218° Southwest 362 417 32,000  Level Washington Center
07:46AM 39.0175 -77.4750 219° Southwest 362 417 32,000  Level Washington Center
07:47AM 38.9497 -77.5481 220° Southwest 357 411 32,000  Level Washington Center
07:48AM 38.8647 -77.6392 220° Southwest 357 411 32,000  Level Washington Center
07:49AM 38.7925 -77.7092 217° Southwest 362 417 32,000  Level Washington Center
07:50AM 38.7161 -77.7867 218° Southwest 362 417 32,000  Level Washington Center
07:51AM 38.6417 -77.8669 220° Southwest 357 411 32,000  Level Washington Center
07:52AM 38.5856 -77.9608 233° Southwest 350 403 32,000  Level Washington Center
07:53AM 38.5275 -78.0572 232° Southwest 345 397 32,000  Level Washington Center
07:54AM 38.4711 -78.1533 233° Southwest 345 397 32,000  Level Washington Center
07:55AM 38.4150 -78.2469 233° Southwest 340 391 32,000  Level Washington Center
07:56AM 38.3586 -78.3428 233° Southwest 340 391 32,000  Level Washington Center
07:57AM 38.2981 -78.4358 230° Southwest 340 391 32,000  Level Washington Center
07:58AM 38.2394 -78.5367 234° Southwest 340 391 32,000  Level Washington Center
07:59AM 38.1786 -78.6294 230° Southwest 340 391 32,000  Level Washington Center
08:00AM 38.1264 -78.7117 231° Southwest 345 397 32,000  Level Washington Center
08:01AM 38.0656 -78.8042 230° Southwest 345 397 32,000  Level Washington Center
08:02AM 38.0067 -78.8992 232° Southwest 345 397 32,000  Level Washington Center
08:03AM 37.9478 -78.9914 231° Southwest 345 397 32,000  Level Washington Center
08:04AM 37.8825 -79.0911 230° Southwest 345 397 32,000  Level Washington Center
08:05AM 37.8211 -79.1856 231° Southwest 345 397 32,000  Level Washington Center
08:06AM 37.7622 -79.2747 230° Southwest 345 397 32,000  Level Washington Center
08:07AM 37.7008 -79.3661 230° Southwest 345 397 32,000  Level Washington Center
08:08AM 37.6483 -79.4500 232° Southwest 345 397 32,000  Level Washington Center
08:09AM 37.5825 -79.5489 230° Southwest 345 397 32,000  Level Washington Center
08:10AM 37.5294 -79.6325 231° Southwest 345 397 32,000  Level Washington Center
08:11AM 37.4636 -79.7311 230° Southwest 345 397 32,000  Level Washington Center
08:12AM 37.4019 -79.8247 230° Southwest 345 397 32,000  Level Washington Center
08:13AM 37.3489 -79.9053 230° Southwest 350 403 32,000  Level Washington Center
08:14AM 37.2508 -80.0472 229° Southwest 346 398 32,000  Level Atlanta Center
08:15AM 37.1931 -80.1361 231° Southwest 341 392 32,000  Level Atlanta Center
08:16AM 37.1275 -80.2356 230° Southwest 341 392 32,000  Level Atlanta Center
08:17AM 37.0697 -80.3217 230° Southwest 341 392 32,000  Level Atlanta Center
08:18AM 37.0078 -80.4103 229° Southwest 341 392 32,000  Level Atlanta Center
08:19AM 36.9497 -80.4961 230° Southwest 341 392 32,000  Level Atlanta Center
08:20AM 36.8958 -80.5764 230° Southwest 341 392 32,000  Level Atlanta Center
08:21AM 36.8378 -80.6619 230° Southwest 341 392 32,000  Level Atlanta Center
08:22AM 36.7797 -80.7525 231° Southwest 341 392 32,100  Climbing Atlanta Center
08:23AM 36.7233 -80.8300 228° Southwest 320 368 32,000 -60 Descending Atlanta Center
08:24AM 36.6592 -80.9256 230° Southwest 320 368 32,000  Level Atlanta Center
08:25AM 36.6008 -81.0133 230° Southwest 320 368 32,000  Level Atlanta Center
08:26AM 36.5403 -81.1008 229° Southwest 327 376 32,000  Level Atlanta Center
08:27AM 36.4819 -81.1881 230° Southwest 327 376 32,000  Level Atlanta Center
08:28AM 36.4236 -81.2781 231° Southwest 332 382 32,000  Level Atlanta Center
08:29AM 36.3628 -81.3625 228° Southwest 338 389 32,000  Level Atlanta Center
08:30AM 36.3042 -81.4494 230° Southwest 338 389 32,000  Level Atlanta Center
08:31AM 36.2456 -81.5339 229° Southwest 338 389 32,000  Level Atlanta Center
08:32AM 36.1847 -81.6206 229° Southwest 338 389 32,000  Level Atlanta Center
08:33AM 36.1239 -81.7097 230° Southwest 333 383 32,000  Level Atlanta Center
08:34AM 36.0647 -81.7936 229° Southwest 333 383 32,000  Level Atlanta Center
08:35AM 36.0017 -81.8803 228° Southwest 338 389 32,000  Level Atlanta Center
08:36AM 35.9469 -81.9664 232° Southwest 333 383 32,000  Level Atlanta Center
08:37AM 35.8939 -82.0419 229° Southwest 333 383 32,000  Level Atlanta Center
08:38AM 35.8306 -82.1281 228° Southwest 339 390 32,000  Level Atlanta Center
08:39AM 35.7736 -82.2114 230° Southwest 334 384 32,000  Level Atlanta Center
08:40AM 35.7142 -82.2944 229° Southwest 334 384 32,000  Level Atlanta Center
08:41AM 35.6547 -82.3750 228° Southwest 334 384 32,000 -60 Level Atlanta Center
08:42AM 35.5956 -82.4603 230° Southwest 334 384 31,900 -600 Descending Atlanta Center
08:43AM 35.5339 -82.5483 229° Southwest 343 395 30,800 -1,080 Descending Atlanta Center
08:44AM 35.4578 -82.6442 226° Southwest 350 403 29,800 -1,020 Descending Atlanta Center
08:45AM 35.3922 -82.7394 230° Southwest 360 414 28,800 -1,020 Descending Atlanta Center
08:46AM 35.3283 -82.8322 230° Southwest 365 420 27,800 -1,020 Descending Atlanta Center
08:47AM 35.2625 -82.9194 227° Southwest 358 412 26,800 -1,020 Descending Atlanta Center
08:48AM 35.1986 -83.0069 228° Southwest 348 400 25,800 -1,020 Descending Atlanta Center
08:49AM 35.1347 -83.0939 228° Southwest 343 395 24,800 -1,020 Descending Atlanta Center
08:50AM 35.0728 -83.1811 229° Southwest 343 395 23,800 -1,020 Descending Atlanta Center
08:51AM 35.0106 -83.2653 228° Southwest 343 395 22,800 -900 Descending Atlanta Center
08:52AM 34.9464 -83.3547 229° Southwest 343 395 22,000 -840 Descending Atlanta Center
08:53AM 34.8906 -83.4311 228° Southwest 337 388 21,200 -540 Descending Atlanta Center
08:54AM 34.8325 -83.5100 228° Southwest 337 388 21,000 -120 Descending Atlanta Center
08:55AM 34.7703 -83.5911 227° Southwest 337 388 21,000 -660 Level Atlanta Center
08:56AM 34.7100 -83.6700 227° Southwest 337 388 19,700 -1,500 Descending Atlanta Center
08:57AM 34.6497 -83.7586 230° Southwest 322 371 18,000 -1,980 Descending Atlanta Center
08:58AM 34.5933 -83.8319 227° Southwest 311 358 15,800 -2,040 Descending Atlanta Center
08:59AM 34.5392 -83.9078 229° Southwest 306 352 14,000 -1,860 Descending Atlanta Center
09:00AM 34.4808 -83.9833 227° Southwest 306 352 12,100 -1,980 Descending Atlanta Center
09:01AM 34.4036 -84.0261 205° Southwest 306 352 10,100 -1,920 Descending Atlanta Center
09:02AM 34.3306 -84.0664 204° Southwest 301 346 8,300 -1,080 Descending Atlanta Center
09:03AM 34.2575 -84.1042 203° Southwest 289 333 8,000 -300 Descending Atlanta Center
09:04AM 34.1825 -84.1317 197° South 289 333 7,700 -660 Descending Atlanta Center
09:05AM 34.1114 -84.1467 190° South 272 313 6,700 -1,320 Descending Atlanta Center
09:06AM 34.0667 -84.1500 184° South 226 260 5,600 -1,500 Descending Atlanta TRACON
09:07AM 34.0167 -84.1667 195° South 227 261 4,300 -840 Descending Atlanta TRACON
09:08AM 33.9500 -84.1833 192° South 211 243 4,000 -180 Descending Atlanta TRACON
09:09AM 33.9000 -84.2000 195° South 211 243 4,000 -300 Level Atlanta TRACON
09:10AM 33.8333 -84.2333 203° Southwest 190 219 3,400 -840 Descending Atlanta TRACON
09:11AM 33.8167 -84.2833 248° West 189 217 2,400 -1,140 Descending Atlanta TRACON
09:13AM 33.8667 -84.3000 301° West  Level FlightAware Approximate
09:20AM 33.8756 -84.3020 301° West  Level Estimated
09:21AM 33.8756 -84.3020 301° West  Level Estimated